createdAt,value
2017-12-19T00:01:05.397Z,1.09
2017-12-19T00:03:32.981Z,1.14
2017-12-19T00:06:00.617Z,1.16
2017-12-19T00:08:28.201Z,1.20
2017-12-19T00:10:55.771Z,1.20
2017-12-19T00:13:23.377Z,1.17
2017-12-19T00:15:50.961Z,1.14
2017-12-19T00:18:18.592Z,1.14
2017-12-19T00:20:46.202Z,1.14
2017-12-19T00:23:13.783Z,1.17
2017-12-19T00:25:41.403Z,1.11
2017-12-19T00:28:09.020Z,1.12
2017-12-19T00:30:36.647Z,1.13
2017-12-19T00:33:04.306Z,1.16
2017-12-19T00:35:32.173Z,1.20
2017-12-19T00:38:00.244Z,1.14
2017-12-19T00:40:27.820Z,1.09
2017-12-19T00:42:55.460Z,1.00
2017-12-19T00:45:23.045Z,1.02
2017-12-19T00:47:50.631Z,1.08
2017-12-19T00:50:18.232Z,1.06
2017-12-19T00:52:45.806Z,0.94
2017-12-19T00:55:13.432Z,1.01
2017-12-19T00:57:41.022Z,1.08
2017-12-19T01:00:08.597Z,1.10
2017-12-19T01:02:36.560Z,1.19
2017-12-19T01:05:04.149Z,1.23
2017-12-19T01:07:31.774Z,1.28
2017-12-19T01:09:59.356Z,1.33
2017-12-19T01:12:26.937Z,1.35
2017-12-19T01:14:54.613Z,1.34
2017-12-19T01:17:22.192Z,1.34
2017-12-19T01:19:49.867Z,1.37
2017-12-19T01:22:17.767Z,1.40
2017-12-19T01:24:45.625Z,1.41
2017-12-19T01:27:13.231Z,1.42
2017-12-19T01:29:40.829Z,1.48
2017-12-19T01:32:08.463Z,1.49
2017-12-19T01:34:36.069Z,1.50
2017-12-19T01:37:03.949Z,1.43
2017-12-19T01:39:31.582Z,1.34
2017-12-19T01:41:59.477Z,1.40
2017-12-19T01:44:27.118Z,1.39
2017-12-19T01:46:54.725Z,1.42
2017-12-19T01:49:22.333Z,1.42
2017-12-19T01:51:49.952Z,1.41
2017-12-19T01:54:17.775Z,1.34
2017-12-19T01:56:45.420Z,1.39
2017-12-19T01:59:13.011Z,1.43
2017-12-19T02:01:40.615Z,1.34
2017-12-19T02:04:08.551Z,1.40
2017-12-19T02:06:36.143Z,1.45
2017-12-19T02:09:03.800Z,1.50
2017-12-19T02:11:31.394Z,1.54
2017-12-19T02:13:58.972Z,1.54
2017-12-19T02:16:26.616Z,1.55
2017-12-19T02:18:54.192Z,1.54
2017-12-19T02:21:21.815Z,1.46
2017-12-19T02:23:49.392Z,1.37
2017-12-19T02:26:17.113Z,1.34
2017-12-19T02:28:44.720Z,1.35
2017-12-19T02:31:12.296Z,1.44
2017-12-19T02:33:39.916Z,1.49
2017-12-19T02:36:07.499Z,1.50
2017-12-19T02:38:35.172Z,1.52
2017-12-19T02:41:02.785Z,1.49
2017-12-19T02:43:30.385Z,1.52
2017-12-19T02:45:57.988Z,1.53
2017-12-19T02:48:25.585Z,1.45
2017-12-19T02:50:53.201Z,1.49
2017-12-19T02:53:20.803Z,1.46
2017-12-19T02:55:48.384Z,1.49
2017-12-19T02:58:15.999Z,1.48
2017-12-19T03:00:43.604Z,1.48
2017-12-19T03:03:11.552Z,1.46
2017-12-19T03:05:39.166Z,1.50
2017-12-19T03:08:07.074Z,1.60
2017-12-19T03:10:34.970Z,1.64
2017-12-19T03:13:02.548Z,1.68
2017-12-19T03:15:30.172Z,1.67
2017-12-19T03:17:57.752Z,1.65
2017-12-19T03:20:25.329Z,1.65
2017-12-19T03:22:52.953Z,1.52
2017-12-19T03:25:20.529Z,1.59
2017-12-19T03:27:48.150Z,1.61
2017-12-19T03:30:15.752Z,1.58
2017-12-19T03:32:43.349Z,1.54
2017-12-19T03:35:10.972Z,1.62
2017-12-19T03:37:38.788Z,1.51
2017-12-19T03:40:06.407Z,1.53
2017-12-19T03:42:34.008Z,1.54
2017-12-19T03:45:01.613Z,1.63
2017-12-19T03:47:29.219Z,1.59
2017-12-19T03:49:57.141Z,1.62
2017-12-19T03:52:27.525Z,1.60
2017-12-19T03:54:55.445Z,1.62
2017-12-19T03:57:23.051Z,1.67
2017-12-19T03:59:50.672Z,1.69
2017-12-19T04:02:18.260Z,1.74
2017-12-19T04:04:45.859Z,1.75
2017-12-19T04:07:13.516Z,1.72
2017-12-19T04:09:41.096Z,1.67
2017-12-19T04:12:08.711Z,1.69
2017-12-19T04:14:36.400Z,1.70
2017-12-19T04:17:03.980Z,1.73
2017-12-19T04:19:31.610Z,1.75
2017-12-19T04:21:59.529Z,1.74
2017-12-19T04:24:27.148Z,1.75
2017-12-19T04:26:54.728Z,1.78
2017-12-19T04:29:22.320Z,1.77
2017-12-19T04:31:49.933Z,1.80
2017-12-19T04:34:17.565Z,1.79
2017-12-19T04:36:45.197Z,1.76
2017-12-19T04:39:12.775Z,1.64
2017-12-19T04:41:40.368Z,1.67
2017-12-19T04:44:07.996Z,1.66
2017-12-19T04:46:35.677Z,1.72
2017-12-19T04:49:03.300Z,1.70
2017-12-19T04:51:30.913Z,1.71
2017-12-19T04:53:58.502Z,1.73
2017-12-19T04:56:26.103Z,1.78
2017-12-19T04:58:53.680Z,1.75
2017-12-19T05:01:21.626Z,1.80
2017-12-19T05:03:49.229Z,1.87
2017-12-19T05:06:16.884Z,1.91
2017-12-19T05:08:44.480Z,1.89
2017-12-19T05:11:12.057Z,1.72
2017-12-19T05:13:39.696Z,1.74
2017-12-19T05:16:07.276Z,1.73
2017-12-19T05:18:34.857Z,1.77
2017-12-19T05:21:02.471Z,1.77
2017-12-19T05:23:30.058Z,1.80
2017-12-19T05:25:57.965Z,1.86
2017-12-19T05:28:25.539Z,1.85
2017-12-19T05:30:53.114Z,1.85
2017-12-19T05:33:21.041Z,1.81
2017-12-19T05:35:48.619Z,1.87
2017-12-19T05:38:16.245Z,1.95
2017-12-19T05:40:43.890Z,1.92
2017-12-19T05:43:11.497Z,1.91
2017-12-19T05:45:39.107Z,1.96
2017-12-19T05:48:06.724Z,1.94
2017-12-19T05:50:34.685Z,1.93
2017-12-19T05:53:02.275Z,1.99
2017-12-19T05:55:29.852Z,2.03
2017-12-19T05:57:57.781Z,1.87
2017-12-19T06:00:26.220Z,1.93
2017-12-19T06:02:54.134Z,2.03
2017-12-19T06:05:21.990Z,2.09
2017-12-19T06:07:49.598Z,2.02
2017-12-19T06:10:17.301Z,2.06
2017-12-19T06:12:44.942Z,2.00
2017-12-19T06:15:12.572Z,1.94
2017-12-19T06:17:40.191Z,1.99
2017-12-19T06:20:07.782Z,2.00
2017-12-19T06:22:35.386Z,2.02
2017-12-19T06:25:03.356Z,2.02
2017-12-19T06:27:30.948Z,2.00
2017-12-19T06:29:58.531Z,1.84
2017-12-19T06:32:26.176Z,1.84
2017-12-19T06:34:53.797Z,1.91
2017-12-19T06:37:21.725Z,1.96
2017-12-19T06:39:49.386Z,2.05
2017-12-19T06:42:16.974Z,2.04
2017-12-19T06:44:44.564Z,1.99
2017-12-19T06:47:12.207Z,1.99
2017-12-19T06:49:39.788Z,2.00
2017-12-19T06:52:07.429Z,2.07
2017-12-19T06:54:34.999Z,2.05
2017-12-19T06:57:02.572Z,2.04
2017-12-19T06:59:30.193Z,2.02
2017-12-19T07:01:58.043Z,2.03
2017-12-19T07:04:25.663Z,2.09
2017-12-19T07:06:53.269Z,2.04
2017-12-19T07:09:20.868Z,2.08
2017-12-19T07:11:48.512Z,2.12
2017-12-19T07:14:16.908Z,2.11
2017-12-19T07:16:44.535Z,2.11
2017-12-19T07:19:12.399Z,2.12
2017-12-19T07:21:39.971Z,2.13
2017-12-19T07:24:07.572Z,2.21
2017-12-19T07:26:35.188Z,2.14
2017-12-19T07:29:02.803Z,2.08
2017-12-19T07:31:30.720Z,2.11
2017-12-19T07:33:58.312Z,2.15
2017-12-19T07:36:25.937Z,2.23
2017-12-19T07:38:53.525Z,2.17
2017-12-19T07:41:21.152Z,2.07
2017-12-19T07:43:48.790Z,2.12
2017-12-19T07:46:16.380Z,2.18
2017-12-19T07:48:43.996Z,2.23
2017-12-19T07:51:11.603Z,2.16
2017-12-19T07:53:39.278Z,2.16
2017-12-19T07:56:06.860Z,2.22
2017-12-19T07:58:34.435Z,2.23
2017-12-19T08:01:02.309Z,2.24
2017-12-19T08:03:29.908Z,2.19
2017-12-19T08:05:57.548Z,2.25
2017-12-19T08:08:25.150Z,2.19
2017-12-19T08:10:53.025Z,2.19
2017-12-19T08:13:20.637Z,2.10
2017-12-19T08:15:48.268Z,2.14
2017-12-19T08:18:15.867Z,2.23
2017-12-19T08:20:43.460Z,2.21
2017-12-19T08:23:11.052Z,2.23
2017-12-19T08:25:38.660Z,2.32
2017-12-19T08:28:06.276Z,2.31
2017-12-19T08:30:33.918Z,2.32
2017-12-19T08:33:01.511Z,2.29
2017-12-19T08:35:29.080Z,2.32
2017-12-19T08:37:56.684Z,2.33
2017-12-19T08:40:24.281Z,2.38
2017-12-19T08:42:51.900Z,2.32
2017-12-19T08:45:19.482Z,2.38
2017-12-19T08:47:47.071Z,2.27
2017-12-19T08:50:14.680Z,2.38
2017-12-19T08:52:42.265Z,2.38
2017-12-19T08:55:10.140Z,2.38
2017-12-19T08:57:38.006Z,2.38
2017-12-19T09:00:05.589Z,2.34
2017-12-19T09:02:33.200Z,2.42
2017-12-19T09:05:00.792Z,2.34
2017-12-19T09:07:28.757Z,2.42
2017-12-19T09:09:56.368Z,2.50
2017-12-19T09:12:23.969Z,2.56
2017-12-19T09:14:51.581Z,2.61
2017-12-19T09:17:19.190Z,2.65
2017-12-19T09:19:46.812Z,2.78
2017-12-19T09:22:14.419Z,2.82
2017-12-19T09:24:42.100Z,2.91
2017-12-19T09:27:09.737Z,2.92
2017-12-19T09:29:37.326Z,2.95
2017-12-19T09:32:04.940Z,2.98
2017-12-19T09:34:32.520Z,2.99
2017-12-19T09:37:00.184Z,2.99
2017-12-19T09:39:27.768Z,3.04
2017-12-19T09:41:55.378Z,2.92
2017-12-19T09:44:22.991Z,2.99
2017-12-19T09:46:50.578Z,2.97
2017-12-19T09:49:18.296Z,3.06
2017-12-19T09:51:46.181Z,2.93
2017-12-19T09:54:13.786Z,2.98
2017-12-19T09:56:41.398Z,3.05
2017-12-19T09:59:08.983Z,3.08
2017-12-19T10:01:36.598Z,3.11
2017-12-19T10:04:04.179Z,3.12
2017-12-19T10:06:31.757Z,3.19
2017-12-19T10:08:59.405Z,3.21
2017-12-19T10:11:27.000Z,3.19
2017-12-19T10:13:54.620Z,3.18
2017-12-19T10:16:22.191Z,3.16
2017-12-19T10:18:49.794Z,3.16
2017-12-19T10:21:17.416Z,3.17
2017-12-19T10:23:45.051Z,3.18
2017-12-19T10:26:12.655Z,3.23
2017-12-19T10:28:40.305Z,3.26
2017-12-19T10:31:07.930Z,3.39
2017-12-19T10:33:35.844Z,3.31
2017-12-19T10:36:03.469Z,3.36
2017-12-19T10:38:31.367Z,3.38
2017-12-19T10:40:58.990Z,3.35
2017-12-19T10:43:26.596Z,3.34
2017-12-19T10:45:54.191Z,3.39
2017-12-19T10:48:21.796Z,3.40
2017-12-19T10:50:49.389Z,3.46
2017-12-19T10:53:17.012Z,3.34
2017-12-19T10:55:44.600Z,3.31
2017-12-19T10:58:12.316Z,3.45
2017-12-19T11:00:39.989Z,3.50
2017-12-19T11:03:07.574Z,3.54
2017-12-19T11:05:35.206Z,3.43
2017-12-19T11:08:03.136Z,3.44
2017-12-19T11:10:30.734Z,3.53
2017-12-19T11:12:58.368Z,3.58
2017-12-19T11:15:25.963Z,3.48
2017-12-19T11:17:53.615Z,3.48
2017-12-19T11:20:21.215Z,3.42
2017-12-19T11:22:48.819Z,3.42
2017-12-19T11:25:16.764Z,3.41
2017-12-19T11:27:44.344Z,3.50
2017-12-19T11:30:11.977Z,3.60
2017-12-19T11:32:39.747Z,3.47
2017-12-19T11:35:07.423Z,3.46
2017-12-19T11:37:35.031Z,3.54
2017-12-19T11:40:02.623Z,3.62
2017-12-19T11:42:30.243Z,3.66
2017-12-19T11:44:57.839Z,3.66
2017-12-19T11:47:25.477Z,3.61
2017-12-19T11:49:53.120Z,3.71
2017-12-19T11:52:21.064Z,3.56
2017-12-19T11:54:49.075Z,3.54
2017-12-19T11:57:16.667Z,3.54
2017-12-19T11:59:44.285Z,3.56
2017-12-19T12:02:11.907Z,3.53
2017-12-19T12:04:39.590Z,3.54
2017-12-19T12:07:07.211Z,3.55
2017-12-19T12:09:34.798Z,3.57
2017-12-19T12:12:02.434Z,3.54
2017-12-19T12:14:30.050Z,3.54
2017-12-19T12:16:57.921Z,3.51
2017-12-19T12:19:25.887Z,3.55
2017-12-19T12:21:53.836Z,3.58
2017-12-19T12:24:21.649Z,3.50
2017-12-19T12:26:49.281Z,3.55
2017-12-19T12:29:16.860Z,3.60
2017-12-19T12:31:44.482Z,3.62
2017-12-19T12:34:12.067Z,3.66
2017-12-19T12:36:39.690Z,3.63
2017-12-19T12:39:07.285Z,3.63
2017-12-19T12:41:34.865Z,3.66
2017-12-19T12:44:02.505Z,3.63
2017-12-19T12:46:30.083Z,3.66
2017-12-19T12:48:57.933Z,3.72
2017-12-19T12:51:25.566Z,3.74
2017-12-19T12:53:53.148Z,3.73
2017-12-19T12:56:21.021Z,3.71
2017-12-19T12:58:48.768Z,3.82
2017-12-19T13:01:16.501Z,3.79
2017-12-19T13:03:44.113Z,3.78
2017-12-19T13:06:11.977Z,3.82
2017-12-19T13:08:39.726Z,3.79
2017-12-19T13:11:07.336Z,3.80
2017-12-19T13:13:34.953Z,3.83
2017-12-19T13:16:02.573Z,3.82
2017-12-19T13:18:30.166Z,3.78
2017-12-19T13:20:58.115Z,3.87
2017-12-19T13:23:26.034Z,3.83
2017-12-19T13:25:53.716Z,3.84
2017-12-19T13:28:21.664Z,3.79
2017-12-19T13:30:49.252Z,3.76
2017-12-19T13:33:16.877Z,3.78
2017-12-19T13:35:44.752Z,3.77
2017-12-19T13:38:12.344Z,3.79
2017-12-19T13:40:39.981Z,3.78
2017-12-19T13:43:07.849Z,3.83
2017-12-19T13:45:36.455Z,3.81
2017-12-19T13:48:04.041Z,3.85
2017-12-19T13:50:31.652Z,3.81
2017-12-19T13:52:59.528Z,3.81
2017-12-19T13:55:27.121Z,3.84
2017-12-19T13:57:54.741Z,3.82
2017-12-19T14:00:22.367Z,3.83
2017-12-19T14:02:49.985Z,3.85
2017-12-19T14:05:17.838Z,3.85
2017-12-19T14:07:45.420Z,3.87
2017-12-19T14:10:13.029Z,3.90
2017-12-19T14:12:40.632Z,3.88
2017-12-19T14:15:08.598Z,3.94
2017-12-19T14:17:36.206Z,3.91
2017-12-19T14:20:03.816Z,3.95
2017-12-19T14:22:31.471Z,3.95
2017-12-19T14:24:59.138Z,3.94
2017-12-19T14:27:26.779Z,3.95
2017-12-19T14:29:54.357Z,4.01
2017-12-19T14:32:21.967Z,3.98
2017-12-19T14:34:49.596Z,3.99
2017-12-19T14:37:17.187Z,4.11
2017-12-19T14:39:45.468Z,4.10
2017-12-19T14:42:13.058Z,4.12
2017-12-19T14:44:40.668Z,4.09
2017-12-19T14:47:08.328Z,4.14
2017-12-19T14:49:37.079Z,4.19
2017-12-19T14:52:04.811Z,4.18
2017-12-19T14:54:32.743Z,4.19
2017-12-19T14:57:00.325Z,4.13
2017-12-19T14:59:27.991Z,4.19
2017-12-19T15:01:55.582Z,4.16
2017-12-19T15:04:23.216Z,4.14
2017-12-19T15:06:50.806Z,4.15
2017-12-19T15:09:18.423Z,4.14
2017-12-19T15:11:46.075Z,4.14
2017-12-19T15:14:13.686Z,4.16
2017-12-19T15:16:41.347Z,4.18
2017-12-19T15:19:08.961Z,4.13
2017-12-19T15:21:36.544Z,4.14
2017-12-19T15:24:04.164Z,4.14
2017-12-19T15:26:32.165Z,4.16
2017-12-19T15:28:59.826Z,4.19
2017-12-19T15:31:27.797Z,4.19
2017-12-19T15:33:55.460Z,4.21
2017-12-19T15:36:23.100Z,4.23
2017-12-19T15:38:50.716Z,4.24
2017-12-19T15:41:18.425Z,4.24
2017-12-19T15:43:46.357Z,4.28
2017-12-19T15:46:14.006Z,4.34
2017-12-19T15:48:41.631Z,4.30
2017-12-19T15:51:09.235Z,4.35
2017-12-19T15:53:36.908Z,4.39
2017-12-19T15:56:04.510Z,4.33
2017-12-19T15:58:32.100Z,4.28
2017-12-19T16:00:59.745Z,4.29
2017-12-19T16:03:27.351Z,4.27
2017-12-19T16:05:55.061Z,4.28
2017-12-19T16:08:22.680Z,4.30
2017-12-19T16:10:50.285Z,4.32
2017-12-19T16:13:17.909Z,4.31
2017-12-19T16:15:45.553Z,4.33
2017-12-19T16:18:13.188Z,4.33
2017-12-19T16:20:41.057Z,4.32
2017-12-19T16:23:08.694Z,4.34
2017-12-19T16:25:36.354Z,4.40
2017-12-19T16:28:03.938Z,4.39
2017-12-19T16:30:31.616Z,4.37
2017-12-19T16:32:59.235Z,4.37
2017-12-19T16:35:26.881Z,4.46
2017-12-19T16:37:54.510Z,4.41
2017-12-19T16:40:22.100Z,4.40
2017-12-19T16:42:49.760Z,4.41
2017-12-19T16:45:17.368Z,4.40
2017-12-19T16:47:45.092Z,4.41
2017-12-19T16:50:12.780Z,4.42
2017-12-19T16:52:40.687Z,4.43
2017-12-19T16:55:08.275Z,4.46
2017-12-19T16:57:35.971Z,4.48
2017-12-19T17:00:03.570Z,4.46
2017-12-19T17:02:31.158Z,4.57
2017-12-19T17:04:58.806Z,4.56
2017-12-19T17:07:26.659Z,4.51
2017-12-19T17:09:54.286Z,4.49
2017-12-19T17:12:21.884Z,4.50
2017-12-19T17:14:49.465Z,4.52
2017-12-19T17:17:17.095Z,4.49
2017-12-19T17:19:44.671Z,4.50
2017-12-19T17:22:12.344Z,4.51
2017-12-19T17:24:39.929Z,4.51
2017-12-19T17:27:07.556Z,4.52
2017-12-19T17:29:35.167Z,4.53
2017-12-19T17:32:02.768Z,4.55
2017-12-19T17:34:30.429Z,4.54
2017-12-19T17:36:58.026Z,4.52
2017-12-19T17:39:25.633Z,4.55
2017-12-19T17:41:53.460Z,4.56
2017-12-19T17:44:21.099Z,4.58
2017-12-19T17:46:48.744Z,4.56
2017-12-19T17:49:16.434Z,4.55
2017-12-19T17:51:44.388Z,4.58
2017-12-19T17:54:12.036Z,4.65
2017-12-19T17:56:39.629Z,4.60
2017-12-19T17:59:07.292Z,4.71
2017-12-19T18:01:35.137Z,4.80
2017-12-19T18:04:03.007Z,4.75
2017-12-19T18:06:30.650Z,4.68
2017-12-19T18:08:58.279Z,4.61
2017-12-19T18:11:25.906Z,4.65
2017-12-19T18:13:53.502Z,4.59
2017-12-19T18:16:21.656Z,4.56
2017-12-19T18:18:49.282Z,4.54
2017-12-19T18:21:17.188Z,4.56
2017-12-19T18:23:44.833Z,4.55
2017-12-19T18:26:12.807Z,4.55
2017-12-19T18:28:40.440Z,4.51
2017-12-19T18:31:08.653Z,4.53
2017-12-19T18:33:36.704Z,4.56
2017-12-19T18:36:04.385Z,4.56
2017-12-19T18:38:32.233Z,4.56
2017-12-19T18:40:59.852Z,4.55
2017-12-19T18:43:27.868Z,4.54
2017-12-19T18:45:55.525Z,4.55
2017-12-19T18:48:23.165Z,4.54
2017-12-19T18:50:51.066Z,4.53
2017-12-19T18:53:18.683Z,4.54
2017-12-19T18:55:46.599Z,4.55
2017-12-19T18:58:14.463Z,4.58
2017-12-19T19:00:42.432Z,4.58
2017-12-19T19:03:10.304Z,4.58
2017-12-19T19:05:37.928Z,4.58
2017-12-19T19:08:05.837Z,4.60
2017-12-19T19:10:33.419Z,4.61
2017-12-19T19:13:01.057Z,4.60
2017-12-19T19:15:28.679Z,4.61
2017-12-19T19:17:56.281Z,4.60
2017-12-19T19:20:23.901Z,4.62
2017-12-19T19:22:51.521Z,4.63
2017-12-19T19:25:19.472Z,4.61
2017-12-19T19:27:47.349Z,4.58
2017-12-19T19:30:15.024Z,4.59
2017-12-19T19:32:42.671Z,4.57
2017-12-19T19:35:10.280Z,4.58
2017-12-19T19:37:37.942Z,4.57
2017-12-19T19:40:05.863Z,4.58
2017-12-19T19:42:33.470Z,4.58
2017-12-19T19:45:01.112Z,4.59
2017-12-19T19:47:28.716Z,4.58
2017-12-19T19:49:56.732Z,4.57
2017-12-19T19:52:24.342Z,4.59
2017-12-19T19:54:51.964Z,4.58
2017-12-19T19:57:19.614Z,4.57
2017-12-19T19:59:47.753Z,4.61
2017-12-19T20:02:15.664Z,4.59
2017-12-19T20:04:43.281Z,4.59
2017-12-19T20:07:10.962Z,4.63
2017-12-19T20:09:38.856Z,4.63
2017-12-19T20:12:06.446Z,4.63
2017-12-19T20:14:34.086Z,4.62
2017-12-19T20:17:01.734Z,4.61
2017-12-19T20:19:29.770Z,4.61
2017-12-19T20:21:57.452Z,4.61
2017-12-19T20:24:25.058Z,4.64
2017-12-19T20:26:53.664Z,4.62
2017-12-19T20:29:21.777Z,4.61
2017-12-19T20:31:49.382Z,4.60
2017-12-19T20:34:17.063Z,4.62
2017-12-19T20:36:44.706Z,4.59
2017-12-19T20:39:12.347Z,4.58
2017-12-19T20:41:39.965Z,4.58
2017-12-19T20:44:07.568Z,4.59
2017-12-19T20:46:35.206Z,4.59
2017-12-19T20:49:02.808Z,4.61
2017-12-19T20:51:30.474Z,4.59
2017-12-19T20:53:58.419Z,4.58
2017-12-19T20:56:26.053Z,4.59
2017-12-19T20:58:54.779Z,4.59
2017-12-19T21:01:22.485Z,4.59
2017-12-19T21:03:50.123Z,4.59
2017-12-19T21:06:17.769Z,4.60
2017-12-19T21:08:45.749Z,4.60
2017-12-19T21:11:13.369Z,4.60
2017-12-19T21:13:40.970Z,4.62
2017-12-19T21:16:08.624Z,4.64
2017-12-19T21:18:36.217Z,4.65
2017-12-19T21:21:03.847Z,4.65
2017-12-19T21:23:31.477Z,4.66
2017-12-19T21:25:59.079Z,4.68
2017-12-19T21:28:26.732Z,4.66
2017-12-19T21:30:54.333Z,4.65
2017-12-19T21:33:21.916Z,4.65
2017-12-19T21:35:49.524Z,4.65
2017-12-19T21:38:17.483Z,4.66
2017-12-19T21:40:45.313Z,4.66
2017-12-19T21:43:12.910Z,4.67
2017-12-19T21:45:40.548Z,4.68
2017-12-19T21:48:08.171Z,4.68
2017-12-19T21:50:35.803Z,4.66
2017-12-19T21:53:03.802Z,4.66
2017-12-19T21:55:31.422Z,4.68
2017-12-19T21:57:59.249Z,4.60
2017-12-19T22:00:26.875Z,4.62
2017-12-19T22:02:54.523Z,4.62
2017-12-19T22:05:22.503Z,4.62
2017-12-19T22:07:50.121Z,4.66
2017-12-19T22:10:17.753Z,4.67
2017-12-19T22:12:45.377Z,4.65
2017-12-19T22:15:12.982Z,4.64
2017-12-19T22:17:40.596Z,4.64
2017-12-19T22:20:08.187Z,4.64
2017-12-19T22:22:35.898Z,4.66
2017-12-19T22:25:03.515Z,4.65
2017-12-19T22:27:31.120Z,4.65
2017-12-19T22:29:59.123Z,4.67
2017-12-19T22:32:26.790Z,4.66
2017-12-19T22:34:54.386Z,4.66
2017-12-19T22:37:22.009Z,4.68
2017-12-19T22:39:49.624Z,4.68
2017-12-19T22:42:17.315Z,4.68
2017-12-19T22:44:44.906Z,4.68
2017-12-19T22:47:12.526Z,4.69
2017-12-19T22:49:40.433Z,4.71
2017-12-19T22:52:08.098Z,4.72
2017-12-19T22:54:35.722Z,4.72
2017-12-19T22:57:03.621Z,4.72
2017-12-19T22:59:31.491Z,4.71
2017-12-19T23:01:59.154Z,4.69
2017-12-19T23:04:26.781Z,4.72
2017-12-19T23:06:54.409Z,4.82
2017-12-19T23:09:22.003Z,4.80
2017-12-19T23:11:49.681Z,4.75
2017-12-19T23:14:17.306Z,4.74
2017-12-19T23:16:44.904Z,4.73
2017-12-19T23:19:12.535Z,4.71
2017-12-19T23:21:40.158Z,4.79
2017-12-19T23:24:08.145Z,4.79
2017-12-19T23:26:35.764Z,4.80
2017-12-19T23:29:03.652Z,4.75
2017-12-19T23:31:31.374Z,4.73
2017-12-19T23:33:59.297Z,4.73
2017-12-19T23:36:26.879Z,4.64
2017-12-19T23:38:54.651Z,4.67
2017-12-19T23:41:22.267Z,4.67
2017-12-19T23:43:49.942Z,4.69
2017-12-19T23:46:17.528Z,4.70
2017-12-19T23:48:45.110Z,4.69
2017-12-19T23:51:12.738Z,4.69
2017-12-19T23:53:40.332Z,4.70
2017-12-19T23:56:07.931Z,4.69
2017-12-19T23:58:35.569Z,4.63
